sensor_id;sensor_type;location;lat;lon;timestamp;P1;durP1;ratioP1;P2;durP2;ratioP2
6019;SDS011;3038;51.122;6.840;2022-09-09T00:00:11;2.03;;;1.80;;
6019;SDS011;3038;51.122;6.840;2022-09-09T00:02:36;2.50;;;2.20;;
6019;SDS011;3038;51.122;6.840;2022-09-09T00:05:13;4.27;;;2.70;;
6019;SDS011;3038;51.122;6.840;2022-09-09T00:07:42;3.10;;;2.03;;
6019;SDS011;3038;51.122;6.840;2022-09-09T00:10:51;4.53;;;2.30;;
6019;SDS011;3038;51.122;6.840;2022-09-09T00:18:25;4.53;;;3.00;;
6019;SDS011;3038;51.122;6.840;2022-09-09T00:20:58;3.87;;;2.60;;
6019;SDS011;3038;51.122;6.840;2022-09-09T00:23:28;4.00;;;2.60;;
6019;SDS011;3038;51.122;6.840;2022-09-09T00:28:20;3.50;;;2.43;;
6019;SDS011;3038;51.122;6.840;2022-09-09T00:30:47;1.93;;;1.80;;
6019;SDS011;3038;51.122;6.840;2022-09-09T00:33:13;2.30;;;2.10;;
6019;SDS011;3038;51.122;6.840;2022-09-09T00:35:51;4.17;;;2.10;;
6019;SDS011;3038;51.122;6.840;2022-09-09T00:41:03;4.60;;;2.30;;
6019;SDS011;3038;51.122;6.840;2022-09-09T00:43:35;2.57;;;2.30;;
6019;SDS011;3038;51.122;6.840;2022-09-09T00:51:58;2.40;;;2.17;;
6019;SDS011;3038;51.122;6.840;2022-09-09T00:56:20;2.53;;;2.33;;
6019;SDS011;3038;51.122;6.840;2022-09-09T00:58:52;1.97;;;1.50;;
6019;SDS011;3038;51.122;6.840;2022-09-09T01:01:23;3.27;;;1.67;;
6019;SDS011;3038;51.122;6.840;2022-09-09T01:03:55;2.13;;;1.53;;
6019;SDS011;3038;51.122;6.840;2022-09-09T01:06:27;1.97;;;1.73;;
6019;SDS011;3038;51.122;6.840;2022-09-09T01:11:20;3.00;;;1.60;;
6019;SDS011;3038;51.122;6.840;2022-09-09T01:13:46;1.77;;;1.60;;
6019;SDS011;3038;51.122;6.840;2022-09-09T01:16:12;2.53;;;1.60;;
6019;SDS011;3038;51.122;6.840;2022-09-09T01:18:39;2.13;;;1.63;;
6019;SDS011;3038;51.122;6.840;2022-09-09T01:28:54;3.20;;;2.00;;
6019;SDS011;3038;51.122;6.840;2022-09-09T01:31:21;2.80;;;2.10;;
6019;SDS011;3038;51.122;6.840;2022-09-09T01:33:47;3.70;;;2.10;;
6019;SDS011;3038;51.122;6.840;2022-09-09T01:36:21;4.30;;;1.77;;
6019;SDS011;3038;51.122;6.840;2022-09-09T01:38:47;6.97;;;2.17;;
6019;SDS011;3038;51.122;6.840;2022-09-09T01:41:13;2.73;;;2.30;;
6019;SDS011;3038;51.122;6.840;2022-09-09T01:43:38;3.97;;;2.30;;
6019;SDS011;3038;51.122;6.840;2022-09-09T01:46:03;6.33;;;2.37;;
6019;SDS011;3038;51.122;6.840;2022-09-09T01:48:29;3.87;;;1.70;;
6019;SDS011;3038;51.122;6.840;2022-09-09T01:50:54;2.30;;;2.10;;
6019;SDS011;3038;51.122;6.840;2022-09-09T01:53:20;4.37;;;2.00;;
6019;SDS011;3038;51.122;6.840;2022-09-09T01:55:49;3.23;;;2.37;;
6019;SDS011;3038;51.122;6.840;2022-09-09T01:58:24;4.60;;;2.10;;
6019;SDS011;3038;51.122;6.840;2022-09-09T02:01:06;3.60;;;2.13;;
6019;SDS011;3038;51.122;6.840;2022-09-09T02:03:35;4.47;;;1.80;;
6019;SDS011;3038;51.122;6.840;2022-09-09T02:08:48;4.37;;;1.80;;
6019;SDS011;3038;51.122;6.840;2022-09-09T02:13:39;2.37;;;1.43;;
6019;SDS011;3038;51.122;6.840;2022-09-09T02:18:32;3.67;;;1.37;;
6019;SDS011;3038;51.122;6.840;2022-09-09T02:20:59;2.03;;;1.30;;
6019;SDS011;3038;51.122;6.840;2022-09-09T02:23:25;2.57;;;1.53;;
6019;SDS011;3038;51.122;6.840;2022-09-09T02:25:51;2.20;;;1.37;;
6019;SDS011;3038;51.122;6.840;2022-09-09T02:28:17;2.87;;;1.40;;
6019;SDS011;3038;51.122;6.840;2022-09-09T02:30:45;3.33;;;1.23;;
6019;SDS011;3038;51.122;6.840;2022-09-09T02:33:12;2.27;;;1.37;;
6019;SDS011;3038;51.122;6.840;2022-09-09T02:35:37;4.13;;;1.60;;
6019;SDS011;3038;51.122;6.840;2022-09-09T02:38:05;6.23;;;2.40;;
6019;SDS011;3038;51.122;6.840;2022-09-09T02:40:31;2.10;;;1.43;;
6019;SDS011;3038;51.122;6.840;2022-09-09T02:42:57;5.20;;;1.60;;
6019;SDS011;3038;51.122;6.840;2022-09-09T02:45:25;2.80;;;2.30;;
6019;SDS011;3038;51.122;6.840;2022-09-09T02:50:20;2.47;;;1.90;;
6019;SDS011;3038;51.122;6.840;2022-09-09T02:53:02;4.50;;;1.93;;
6019;SDS011;3038;51.122;6.840;2022-09-09T02:55:41;2.10;;;1.90;;
6019;SDS011;3038;51.122;6.840;2022-09-09T02:58:09;3.90;;;1.90;;
6019;SDS011;3038;51.122;6.840;2022-09-09T03:00:36;4.60;;;2.20;;
6019;SDS011;3038;51.122;6.840;2022-09-09T03:03:06;2.20;;;1.60;;
6019;SDS011;3038;51.122;6.840;2022-09-09T03:05:31;6.67;;;2.53;;
6019;SDS011;3038;51.122;6.840;2022-09-09T03:07:57;1.97;;;1.60;;
6019;SDS011;3038;51.122;6.840;2022-09-09T03:10:22;2.63;;;1.50;;
6019;SDS011;3038;51.122;6.840;2022-09-09T03:12:48;2.83;;;1.37;;
6019;SDS011;3038;51.122;6.840;2022-09-09T03:15:13;1.87;;;1.57;;
6019;SDS011;3038;51.122;6.840;2022-09-09T03:17:39;3.77;;;2.30;;
6019;SDS011;3038;51.122;6.840;2022-09-09T03:20:05;6.83;;;2.00;;
6019;SDS011;3038;51.122;6.840;2022-09-09T03:22:31;3.87;;;1.43;;
6019;SDS011;3038;51.122;6.840;2022-09-09T03:24:56;5.33;;;2.00;;
6019;SDS011;3038;51.122;6.840;2022-09-09T03:27:21;3.80;;;1.80;;
6019;SDS011;3038;51.122;6.840;2022-09-09T03:29:46;5.00;;;2.30;;
6019;SDS011;3038;51.122;6.840;2022-09-09T03:32:12;7.47;;;2.70;;
6019;SDS011;3038;51.122;6.840;2022-09-09T03:34:38;5.40;;;2.27;;
6019;SDS011;3038;51.122;6.840;2022-09-09T03:37:05;4.43;;;2.10;;
6019;SDS011;3038;51.122;6.840;2022-09-09T03:39:30;4.77;;;2.80;;
6019;SDS011;3038;51.122;6.840;2022-09-09T03:41:55;4.10;;;2.10;;
6019;SDS011;3038;51.122;6.840;2022-09-09T03:44:21;4.10;;;2.20;;
6019;SDS011;3038;51.122;6.840;2022-09-09T03:46:46;4.53;;;2.70;;
6019;SDS011;3038;51.122;6.840;2022-09-09T03:49:11;4.17;;;3.00;;
6019;SDS011;3038;51.122;6.840;2022-09-09T03:51:36;3.87;;;3.00;;
6019;SDS011;3038;51.122;6.840;2022-09-09T03:54:03;3.37;;;2.20;;
6019;SDS011;3038;51.122;6.840;2022-09-09T03:56:30;2.43;;;2.20;;
6019;SDS011;3038;51.122;6.840;2022-09-09T03:58:55;4.77;;;2.90;;
6019;SDS011;3038;51.122;6.840;2022-09-09T04:01:20;4.17;;;2.30;;
6019;SDS011;3038;51.122;6.840;2022-09-09T04:03:45;4.80;;;2.13;;
6019;SDS011;3038;51.122;6.840;2022-09-09T04:06:11;3.87;;;3.07;;
6019;SDS011;3038;51.122;6.840;2022-09-09T04:08:39;6.03;;;2.90;;
6019;SDS011;3038;51.122;6.840;2022-09-09T04:11:05;6.33;;;2.50;;
6019;SDS011;3038;51.122;6.840;2022-09-09T04:13:32;4.00;;;2.60;;
6019;SDS011;3038;51.122;6.840;2022-09-09T04:15:58;7.27;;;2.93;;
6019;SDS011;3038;51.122;6.840;2022-09-09T04:18:24;3.93;;;2.13;;
6019;SDS011;3038;51.122;6.840;2022-09-09T04:20:50;5.07;;;2.40;;
6019;SDS011;3038;51.122;6.840;2022-09-09T04:23:16;5.43;;;2.10;;
6019;SDS011;3038;51.122;6.840;2022-09-09T04:25:48;3.13;;;2.10;;
6019;SDS011;3038;51.122;6.840;2022-09-09T04:28:14;6.20;;;2.73;;
6019;SDS011;3038;51.122;6.840;2022-09-09T04:30:39;5.00;;;2.07;;
6019;SDS011;3038;51.122;6.840;2022-09-09T04:33:05;4.10;;;2.03;;
6019;SDS011;3038;51.122;6.840;2022-09-09T04:35:31;4.20;;;2.57;;
6019;SDS011;3038;51.122;6.840;2022-09-09T04:37:56;5.07;;;2.07;;
6019;SDS011;3038;51.122;6.840;2022-09-09T04:40:21;4.90;;;2.23;;
6019;SDS011;3038;51.122;6.840;2022-09-09T04:42:47;4.80;;;2.10;;
6019;SDS011;3038;51.122;6.840;2022-09-09T04:45:15;4.07;;;2.00;;
6019;SDS011;3038;51.122;6.840;2022-09-09T04:47:40;4.63;;;2.10;;
6019;SDS011;3038;51.122;6.840;2022-09-09T04:50:06;3.60;;;2.10;;
6019;SDS011;3038;51.122;6.840;2022-09-09T04:52:33;7.80;;;2.63;;
6019;SDS011;3038;51.122;6.840;2022-09-09T04:54:58;5.80;;;2.70;;
6019;SDS011;3038;51.122;6.840;2022-09-09T04:57:23;4.97;;;2.67;;
6019;SDS011;3038;51.122;6.840;2022-09-09T04:59:49;5.50;;;3.37;;
6019;SDS011;3038;51.122;6.840;2022-09-09T05:02:15;6.90;;;2.13;;
6019;SDS011;3038;51.122;6.840;2022-09-09T05:04:40;8.00;;;3.00;;
6019;SDS011;3038;51.122;6.840;2022-09-09T05:07:05;4.93;;;2.10;;
6019;SDS011;3038;51.122;6.840;2022-09-09T05:09:31;7.80;;;2.37;;
6019;SDS011;3038;51.122;6.840;2022-09-09T05:11:56;6.77;;;2.20;;
6019;SDS011;3038;51.122;6.840;2022-09-09T05:14:23;7.03;;;3.60;;
6019;SDS011;3038;51.122;6.840;2022-09-09T05:16:48;3.47;;;2.10;;
6019;SDS011;3038;51.122;6.840;2022-09-09T05:19:14;5.00;;;2.40;;
6019;SDS011;3038;51.122;6.840;2022-09-09T05:21:40;4.23;;;2.30;;
6019;SDS011;3038;51.122;6.840;2022-09-09T05:24:06;4.50;;;2.80;;
6019;SDS011;3038;51.122;6.840;2022-09-09T05:26:31;2.90;;;2.37;;
6019;SDS011;3038;51.122;6.840;2022-09-09T05:28:57;6.80;;;2.70;;
6019;SDS011;3038;51.122;6.840;2022-09-09T05:31:24;8.90;;;4.00;;
6019;SDS011;3038;51.122;6.840;2022-09-09T05:33:52;9.70;;;2.90;;
6019;SDS011;3038;51.122;6.840;2022-09-09T05:36:19;4.17;;;2.83;;
6019;SDS011;3038;51.122;6.840;2022-09-09T05:38:45;5.50;;;2.73;;
6019;SDS011;3038;51.122;6.840;2022-09-09T05:41:10;3.70;;;2.50;;
6019;SDS011;3038;51.122;6.840;2022-09-09T05:43:36;4.93;;;2.97;;
6019;SDS011;3038;51.122;6.840;2022-09-09T05:46:06;6.23;;;2.53;;
6019;SDS011;3038;51.122;6.840;2022-09-09T05:48:33;4.60;;;2.90;;
6019;SDS011;3038;51.122;6.840;2022-09-09T05:50:59;6.47;;;3.03;;
6019;SDS011;3038;51.122;6.840;2022-09-09T05:53:25;6.33;;;3.13;;
6019;SDS011;3038;51.122;6.840;2022-09-09T05:55:50;7.10;;;2.77;;
6019;SDS011;3038;51.122;6.840;2022-09-09T05:58:22;5.87;;;2.90;;
6019;SDS011;3038;51.122;6.840;2022-09-09T06:00:48;4.90;;;2.97;;
6019;SDS011;3038;51.122;6.840;2022-09-09T06:03:13;4.13;;;2.40;;
6019;SDS011;3038;51.122;6.840;2022-09-09T06:05:38;3.23;;;2.20;;
6019;SDS011;3038;51.122;6.840;2022-09-09T06:08:03;2.47;;;2.20;;
6019;SDS011;3038;51.122;6.840;2022-09-09T06:10:28;6.07;;;2.70;;
6019;SDS011;3038;51.122;6.840;2022-09-09T06:12:54;4.80;;;2.60;;
6019;SDS011;3038;51.122;6.840;2022-09-09T06:15:19;4.10;;;2.23;;
6019;SDS011;3038;51.122;6.840;2022-09-09T06:17:44;5.50;;;1.90;;
6019;SDS011;3038;51.122;6.840;2022-09-09T06:20:10;6.07;;;2.03;;
6019;SDS011;3038;51.122;6.840;2022-09-09T06:22:35;4.27;;;1.73;;
6019;SDS011;3038;51.122;6.840;2022-09-09T06:25:00;3.40;;;2.07;;
6019;SDS011;3038;51.122;6.840;2022-09-09T06:27:26;2.50;;;1.70;;
6019;SDS011;3038;51.122;6.840;2022-09-09T06:29:52;2.00;;;1.60;;
6019;SDS011;3038;51.122;6.840;2022-09-09T06:32:17;4.83;;;2.07;;
6019;SDS011;3038;51.122;6.840;2022-09-09T06:34:42;4.80;;;1.60;;
6019;SDS011;3038;51.122;6.840;2022-09-09T06:37:07;8.07;;;2.40;;
6019;SDS011;3038;51.122;6.840;2022-09-09T06:39:33;4.80;;;1.90;;
6019;SDS011;3038;51.122;6.840;2022-09-09T06:41:58;3.97;;;1.80;;
6019;SDS011;3038;51.122;6.840;2022-09-09T06:44:24;4.80;;;2.40;;
6019;SDS011;3038;51.122;6.840;2022-09-09T06:46:51;4.60;;;1.73;;
6019;SDS011;3038;51.122;6.840;2022-09-09T06:49:17;3.60;;;2.50;;
6019;SDS011;3038;51.122;6.840;2022-09-09T06:51:42;2.60;;;1.90;;
6019;SDS011;3038;51.122;6.840;2022-09-09T06:54:07;3.47;;;1.30;;
6019;SDS011;3038;51.122;6.840;2022-09-09T06:56:35;2.80;;;1.67;;
6019;SDS011;3038;51.122;6.840;2022-09-09T06:59:02;6.00;;;2.03;;
6019;SDS011;3038;51.122;6.840;2022-09-09T07:01:32;2.13;;;1.57;;
6019;SDS011;3038;51.122;6.840;2022-09-09T07:03:58;5.00;;;1.70;;
6019;SDS011;3038;51.122;6.840;2022-09-09T07:06:24;4.50;;;1.63;;
6019;SDS011;3038;51.122;6.840;2022-09-09T07:08:54;3.33;;;1.43;;
6019;SDS011;3038;51.122;6.840;2022-09-09T07:11:20;3.50;;;1.80;;
6019;SDS011;3038;51.122;6.840;2022-09-09T07:13:46;2.90;;;1.50;;
6019;SDS011;3038;51.122;6.840;2022-09-09T07:16:12;2.70;;;2.00;;
6019;SDS011;3038;51.122;6.840;2022-09-09T07:18:38;4.10;;;2.10;;
6019;SDS011;3038;51.122;6.840;2022-09-09T07:21:03;7.33;;;1.90;;
6019;SDS011;3038;51.122;6.840;2022-09-09T07:23:29;6.63;;;1.60;;
6019;SDS011;3038;51.122;6.840;2022-09-09T07:25:55;3.87;;;1.73;;
6019;SDS011;3038;51.122;6.840;2022-09-09T07:28:20;5.90;;;1.93;;
6019;SDS011;3038;51.122;6.840;2022-09-09T07:30:55;7.37;;;2.07;;
6019;SDS011;3038;51.122;6.840;2022-09-09T07:33:21;4.13;;;1.60;;
6019;SDS011;3038;51.122;6.840;2022-09-09T07:35:46;3.77;;;1.80;;
6019;SDS011;3038;51.122;6.840;2022-09-09T07:38:11;4.07;;;2.17;;
6019;SDS011;3038;51.122;6.840;2022-09-09T07:40:36;4.43;;;1.93;;
6019;SDS011;3038;51.122;6.840;2022-09-09T07:43:02;3.90;;;2.00;;
6019;SDS011;3038;51.122;6.840;2022-09-09T07:45:27;9.50;;;2.63;;
6019;SDS011;3038;51.122;6.840;2022-09-09T07:47:57;7.20;;;1.70;;
6019;SDS011;3038;51.122;6.840;2022-09-09T07:50:23;4.80;;;1.73;;
6019;SDS011;3038;51.122;6.840;2022-09-09T07:52:48;5.30;;;1.80;;
6019;SDS011;3038;51.122;6.840;2022-09-09T07:55:14;2.90;;;1.67;;
6019;SDS011;3038;51.122;6.840;2022-09-09T07:57:39;5.27;;;1.50;;
6019;SDS011;3038;51.122;6.840;2022-09-09T08:00:05;8.67;;;2.50;;
6019;SDS011;3038;51.122;6.840;2022-09-09T08:02:30;3.83;;;1.80;;
6019;SDS011;3038;51.122;6.840;2022-09-09T08:04:55;3.50;;;1.80;;
6019;SDS011;3038;51.122;6.840;2022-09-09T08:07:21;4.87;;;2.40;;
6019;SDS011;3038;51.122;6.840;2022-09-09T08:09:47;5.80;;;1.80;;
6019;SDS011;3038;51.122;6.840;2022-09-09T08:12:12;3.70;;;1.53;;
6019;SDS011;3038;51.122;6.840;2022-09-09T08:14:38;8.30;;;2.10;;
6019;SDS011;3038;51.122;6.840;2022-09-09T08:17:04;7.33;;;1.73;;
6019;SDS011;3038;51.122;6.840;2022-09-09T08:19:29;3.10;;;1.63;;
6019;SDS011;3038;51.122;6.840;2022-09-09T08:21:55;4.93;;;2.43;;
6019;SDS011;3038;51.122;6.840;2022-09-09T08:24:20;4.30;;;2.10;;
6019;SDS011;3038;51.122;6.840;2022-09-09T08:26:46;4.37;;;1.80;;
6019;SDS011;3038;51.122;6.840;2022-09-09T08:29:13;2.40;;;1.27;;
6019;SDS011;3038;51.122;6.840;2022-09-09T08:31:40;4.07;;;1.60;;
6019;SDS011;3038;51.122;6.840;2022-09-09T08:34:06;5.00;;;1.97;;
6019;SDS011;3038;51.122;6.840;2022-09-09T08:36:36;2.73;;;1.63;;
6019;SDS011;3038;51.122;6.840;2022-09-09T08:39:03;2.30;;;1.50;;
6019;SDS011;3038;51.122;6.840;2022-09-09T08:48:58;5.77;;;1.57;;
6019;SDS011;3038;51.122;6.840;2022-09-09T08:51:26;3.57;;;1.97;;
6019;SDS011;3038;51.122;6.840;2022-09-09T08:53:52;5.07;;;1.63;;
6019;SDS011;3038;51.122;6.840;2022-09-09T08:56:21;3.60;;;1.50;;
6019;SDS011;3038;51.122;6.840;2022-09-09T08:58:48;4.20;;;1.93;;
6019;SDS011;3038;51.122;6.840;2022-09-09T09:03:43;4.10;;;1.77;;
6019;SDS011;3038;51.122;6.840;2022-09-09T09:09:08;2.90;;;1.97;;
6019;SDS011;3038;51.122;6.840;2022-09-09T09:11:40;4.20;;;1.60;;
6019;SDS011;3038;51.122;6.840;2022-09-09T09:14:10;3.23;;;1.53;;
6019;SDS011;3038;51.122;6.840;2022-09-09T09:19:08;3.63;;;1.93;;
6019;SDS011;3038;51.122;6.840;2022-09-09T09:21:39;2.67;;;1.20;;
6019;SDS011;3038;51.122;6.840;2022-09-09T09:24:19;2.63;;;1.37;;
6019;SDS011;3038;51.122;6.840;2022-09-09T09:26:45;3.50;;;1.70;;
6019;SDS011;3038;51.122;6.840;2022-09-09T09:29:14;4.00;;;2.03;;
6019;SDS011;3038;51.122;6.840;2022-09-09T09:31:45;2.50;;;1.53;;
6019;SDS011;3038;51.122;6.840;2022-09-09T09:34:10;3.20;;;1.70;;
6019;SDS011;3038;51.122;6.840;2022-09-09T09:36:42;2.10;;;1.70;;
6019;SDS011;3038;51.122;6.840;2022-09-09T09:39:07;3.07;;;1.70;;
6019;SDS011;3038;51.122;6.840;2022-09-09T09:41:35;2.03;;;1.20;;
6019;SDS011;3038;51.122;6.840;2022-09-09T09:44:01;4.50;;;1.90;;
6019;SDS011;3038;51.122;6.840;2022-09-09T09:46:27;2.93;;;1.30;;
6019;SDS011;3038;51.122;6.840;2022-09-09T09:49:10;3.87;;;1.60;;
6019;SDS011;3038;51.122;6.840;2022-09-09T09:51:37;2.30;;;1.10;;
6019;SDS011;3038;51.122;6.840;2022-09-09T09:54:17;3.97;;;1.53;;
6019;SDS011;3038;51.122;6.840;2022-09-09T09:56:43;2.73;;;1.30;;
6019;SDS011;3038;51.122;6.840;2022-09-09T09:59:19;3.03;;;1.23;;
6019;SDS011;3038;51.122;6.840;2022-09-09T10:01:45;3.83;;;1.87;;
6019;SDS011;3038;51.122;6.840;2022-09-09T10:04:18;3.00;;;1.40;;
6019;SDS011;3038;51.122;6.840;2022-09-09T10:06:45;2.13;;;1.30;;
6019;SDS011;3038;51.122;6.840;2022-09-09T10:14:21;2.20;;;1.37;;
6019;SDS011;3038;51.122;6.840;2022-09-09T10:19:13;2.47;;;1.20;;
6019;SDS011;3038;51.122;6.840;2022-09-09T10:29:57;4.70;;;1.53;;
6019;SDS011;3038;51.122;6.840;2022-09-09T10:32:36;1.93;;;1.40;;
6019;SDS011;3038;51.122;6.840;2022-09-09T10:35:04;4.50;;;1.50;;
6019;SDS011;3038;51.122;6.840;2022-09-09T10:37:52;2.70;;;1.20;;
6019;SDS011;3038;51.122;6.840;2022-09-09T10:40:38;2.60;;;1.37;;
6019;SDS011;3038;51.122;6.840;2022-09-09T10:43:29;1.80;;;1.20;;
6019;SDS011;3038;51.122;6.840;2022-09-09T10:56:22;2.17;;;1.30;;
6019;SDS011;3038;51.122;6.840;2022-09-09T10:58:56;1.40;;;1.20;;
6019;SDS011;3038;51.122;6.840;2022-09-09T11:01:25;2.10;;;1.30;;
6019;SDS011;3038;51.122;6.840;2022-09-09T11:03:53;1.60;;;1.20;;
6019;SDS011;3038;51.122;6.840;2022-09-09T11:06:20;3.83;;;1.17;;
6019;SDS011;3038;51.122;6.840;2022-09-09T11:08:47;2.90;;;1.13;;
6019;SDS011;3038;51.122;6.840;2022-09-09T11:18:44;6.43;;;1.90;;
6019;SDS011;3038;51.122;6.840;2022-09-09T11:21:22;3.67;;;1.63;;
6019;SDS011;3038;51.122;6.840;2022-09-09T11:23:49;2.00;;;1.10;;
6019;SDS011;3038;51.122;6.840;2022-09-09T11:26:18;2.70;;;1.10;;
6019;SDS011;3038;51.122;6.840;2022-09-09T11:36:32;2.57;;;1.10;;
6019;SDS011;3038;51.122;6.840;2022-09-09T11:41:41;4.03;;;1.63;;
6019;SDS011;3038;51.122;6.840;2022-09-09T11:44:12;3.43;;;1.37;;
6019;SDS011;3038;51.122;6.840;2022-09-09T11:46:41;2.93;;;1.20;;
6019;SDS011;3038;51.122;6.840;2022-09-09T11:49:21;3.50;;;1.20;;
6019;SDS011;3038;51.122;6.840;2022-09-09T11:51:50;3.53;;;1.70;;
6019;SDS011;3038;51.122;6.840;2022-09-09T11:54:31;4.90;;;1.77;;
6019;SDS011;3038;51.122;6.840;2022-09-09T11:56:57;3.03;;;1.30;;
6019;SDS011;3038;51.122;6.840;2022-09-09T12:04:36;2.00;;;1.10;;
6019;SDS011;3038;51.122;6.840;2022-09-09T12:14:43;3.13;;;1.53;;
6019;SDS011;3038;51.122;6.840;2022-09-09T12:17:31;4.60;;;1.50;;
6019;SDS011;3038;51.122;6.840;2022-09-09T12:27:52;2.60;;;1.63;;
6019;SDS011;3038;51.122;6.840;2022-09-09T12:30:22;6.33;;;1.57;;
6019;SDS011;3038;51.122;6.840;2022-09-09T12:33:00;5.10;;;1.60;;
6019;SDS011;3038;51.122;6.840;2022-09-09T12:35:26;4.00;;;2.57;;
6019;SDS011;3038;51.122;6.840;2022-09-09T12:37:54;4.73;;;1.60;;
6019;SDS011;3038;51.122;6.840;2022-09-09T12:42:47;3.17;;;1.50;;
6019;SDS011;3038;51.122;6.840;2022-09-09T12:45:19;1.80;;;1.50;;
6019;SDS011;3038;51.122;6.840;2022-09-09T12:47:49;4.10;;;1.63;;
6019;SDS011;3038;51.122;6.840;2022-09-09T12:50:22;2.87;;;1.67;;
6019;SDS011;3038;51.122;6.840;2022-09-09T12:52:49;4.23;;;1.30;;
6019;SDS011;3038;51.122;6.840;2022-09-09T12:55:17;3.17;;;1.63;;
6019;SDS011;3038;51.122;6.840;2022-09-09T12:57:42;3.63;;;1.90;;
6019;SDS011;3038;51.122;6.840;2022-09-09T13:00:15;2.47;;;1.87;;
6019;SDS011;3038;51.122;6.840;2022-09-09T13:02:52;4.37;;;2.10;;
6019;SDS011;3038;51.122;6.840;2022-09-09T13:05:21;5.50;;;1.80;;
6019;SDS011;3038;51.122;6.840;2022-09-09T13:07:47;2.90;;;1.90;;
6019;SDS011;3038;51.122;6.840;2022-09-09T13:10:13;3.93;;;1.87;;
6019;SDS011;3038;51.122;6.840;2022-09-09T13:12:38;2.80;;;1.70;;
6019;SDS011;3038;51.122;6.840;2022-09-09T13:15:04;2.70;;;1.30;;
6019;SDS011;3038;51.122;6.840;2022-09-09T13:17:34;1.90;;;1.40;;
6019;SDS011;3038;51.122;6.840;2022-09-09T13:20:00;3.00;;;1.43;;
6019;SDS011;3038;51.122;6.840;2022-09-09T13:22:31;2.97;;;1.77;;
6019;SDS011;3038;51.122;6.840;2022-09-09T13:24:59;3.30;;;1.73;;
6019;SDS011;3038;51.122;6.840;2022-09-09T13:27:29;3.17;;;1.77;;
6019;SDS011;3038;51.122;6.840;2022-09-09T13:29:55;3.00;;;1.50;;
6019;SDS011;3038;51.122;6.840;2022-09-09T13:32:22;3.40;;;1.57;;
6019;SDS011;3038;51.122;6.840;2022-09-09T13:34:58;6.40;;;1.87;;
6019;SDS011;3038;51.122;6.840;2022-09-09T13:37:30;2.80;;;1.53;;
6019;SDS011;3038;51.122;6.840;2022-09-09T13:39:57;3.00;;;1.80;;
6019;SDS011;3038;51.122;6.840;2022-09-09T13:42:26;2.53;;;1.80;;
6019;SDS011;3038;51.122;6.840;2022-09-09T13:44:52;1.87;;;1.27;;
6019;SDS011;3038;51.122;6.840;2022-09-09T13:47:18;4.30;;;1.80;;
6019;SDS011;3038;51.122;6.840;2022-09-09T13:49:44;2.40;;;2.20;;
6019;SDS011;3038;51.122;6.840;2022-09-09T13:52:14;2.63;;;2.43;;
6019;SDS011;3038;51.122;6.840;2022-09-09T13:54:41;4.17;;;2.50;;
6019;SDS011;3038;51.122;6.840;2022-09-09T13:57:17;4.40;;;2.17;;
6019;SDS011;3038;51.122;6.840;2022-09-09T13:59:43;3.63;;;2.00;;
6019;SDS011;3038;51.122;6.840;2022-09-09T14:02:08;1.80;;;1.43;;
6019;SDS011;3038;51.122;6.840;2022-09-09T14:04:33;2.90;;;2.10;;
6019;SDS011;3038;51.122;6.840;2022-09-09T14:07:00;3.47;;;2.13;;
6019;SDS011;3038;51.122;6.840;2022-09-09T14:09:25;2.37;;;1.90;;
6019;SDS011;3038;51.122;6.840;2022-09-09T14:11:50;4.60;;;2.00;;
6019;SDS011;3038;51.122;6.840;2022-09-09T14:14:15;3.30;;;2.17;;
6019;SDS011;3038;51.122;6.840;2022-09-09T14:16:41;2.77;;;1.37;;
6019;SDS011;3038;51.122;6.840;2022-09-09T14:19:07;3.53;;;1.83;;
6019;SDS011;3038;51.122;6.840;2022-09-09T14:21:32;3.67;;;1.67;;
6019;SDS011;3038;51.122;6.840;2022-09-09T14:23:57;2.23;;;1.70;;
6019;SDS011;3038;51.122;6.840;2022-09-09T14:26:23;2.13;;;1.80;;
6019;SDS011;3038;51.122;6.840;2022-09-09T14:28:49;4.00;;;1.50;;
6019;SDS011;3038;51.122;6.840;2022-09-09T14:31:15;4.33;;;1.73;;
6019;SDS011;3038;51.122;6.840;2022-09-09T14:33:42;3.20;;;1.50;;
6019;SDS011;3038;51.122;6.840;2022-09-09T14:36:08;2.17;;;1.30;;
6019;SDS011;3038;51.122;6.840;2022-09-09T14:38:35;2.83;;;1.70;;
6019;SDS011;3038;51.122;6.840;2022-09-09T14:41:04;2.00;;;1.43;;
6019;SDS011;3038;51.122;6.840;2022-09-09T14:43:29;1.70;;;1.40;;
6019;SDS011;3038;51.122;6.840;2022-09-09T14:45:57;3.10;;;1.53;;
6019;SDS011;3038;51.122;6.840;2022-09-09T14:48:22;1.73;;;1.20;;
6019;SDS011;3038;51.122;6.840;2022-09-09T14:50:47;2.50;;;1.10;;
6019;SDS011;3038;51.122;6.840;2022-09-09T14:53:14;2.13;;;1.60;;
6019;SDS011;3038;51.122;6.840;2022-09-09T14:55:41;4.10;;;2.07;;
6019;SDS011;3038;51.122;6.840;2022-09-09T14:58:07;2.50;;;1.50;;
6019;SDS011;3038;51.122;6.840;2022-09-09T15:00:32;2.87;;;1.10;;
6019;SDS011;3038;51.122;6.840;2022-09-09T15:02:57;5.50;;;1.23;;
6019;SDS011;3038;51.122;6.840;2022-09-09T15:05:22;1.60;;;0.90;;
6019;SDS011;3038;51.122;6.840;2022-09-09T15:07:49;2.67;;;1.00;;
6019;SDS011;3038;51.122;6.840;2022-09-09T15:10:14;2.60;;;1.07;;
6019;SDS011;3038;51.122;6.840;2022-09-09T15:12:39;1.10;;;0.90;;
6019;SDS011;3038;51.122;6.840;2022-09-09T15:15:07;3.93;;;1.13;;
6019;SDS011;3038;51.122;6.840;2022-09-09T15:17:33;1.97;;;0.83;;
6019;SDS011;3038;51.122;6.840;2022-09-09T15:19:59;1.77;;;0.90;;
6019;SDS011;3038;51.122;6.840;2022-09-09T15:22:24;2.23;;;2.03;;
6019;SDS011;3038;51.122;6.840;2022-09-09T15:24:49;1.43;;;0.80;;
6019;SDS011;3038;51.122;6.840;2022-09-09T15:27:14;1.37;;;0.90;;
6019;SDS011;3038;51.122;6.840;2022-09-09T15:29:40;1.50;;;0.90;;
6019;SDS011;3038;51.122;6.840;2022-09-09T15:32:05;1.40;;;1.00;;
6019;SDS011;3038;51.122;6.840;2022-09-09T15:34:30;1.63;;;1.00;;
6019;SDS011;3038;51.122;6.840;2022-09-09T15:36:56;1.77;;;1.30;;
6019;SDS011;3038;51.122;6.840;2022-09-09T15:39:21;1.53;;;1.27;;
6019;SDS011;3038;51.122;6.840;2022-09-09T15:41:47;2.40;;;1.13;;
6019;SDS011;3038;51.122;6.840;2022-09-09T15:44:13;3.23;;;1.30;;
6019;SDS011;3038;51.122;6.840;2022-09-09T15:46:39;2.07;;;1.23;;
6019;SDS011;3038;51.122;6.840;2022-09-09T15:51:37;1.90;;;1.20;;
6019;SDS011;3038;51.122;6.840;2022-09-09T15:54:02;2.73;;;1.57;;
6019;SDS011;3038;51.122;6.840;2022-09-09T15:56:28;3.67;;;1.30;;
6019;SDS011;3038;51.122;6.840;2022-09-09T15:58:55;5.10;;;2.00;;
6019;SDS011;3038;51.122;6.840;2022-09-09T16:01:21;3.13;;;1.40;;
6019;SDS011;3038;51.122;6.840;2022-09-09T16:03:46;3.10;;;1.90;;
6019;SDS011;3038;51.122;6.840;2022-09-09T16:06:13;5.37;;;1.70;;
6019;SDS011;3038;51.122;6.840;2022-09-09T16:08:39;3.00;;;1.60;;
6019;SDS011;3038;51.122;6.840;2022-09-09T16:11:06;4.53;;;1.73;;
6019;SDS011;3038;51.122;6.840;2022-09-09T16:13:35;2.50;;;1.57;;
6019;SDS011;3038;51.122;6.840;2022-09-09T16:16:01;3.17;;;1.60;;
6019;SDS011;3038;51.122;6.840;2022-09-09T16:18:26;1.83;;;1.40;;
6019;SDS011;3038;51.122;6.840;2022-09-09T16:20:57;2.73;;;1.50;;
6019;SDS011;3038;51.122;6.840;2022-09-09T16:23:22;2.80;;;1.80;;
6019;SDS011;3038;51.122;6.840;2022-09-09T16:25:56;2.17;;;1.50;;
6019;SDS011;3038;51.122;6.840;2022-09-09T16:28:22;2.70;;;1.37;;
6019;SDS011;3038;51.122;6.840;2022-09-09T16:30:47;2.40;;;1.10;;
6019;SDS011;3038;51.122;6.840;2022-09-09T16:33:13;1.80;;;1.40;;
6019;SDS011;3038;51.122;6.840;2022-09-09T16:35:40;2.47;;;1.30;;
6019;SDS011;3038;51.122;6.840;2022-09-09T16:38:05;2.17;;;1.60;;
6019;SDS011;3038;51.122;6.840;2022-09-09T16:40:33;1.67;;;1.30;;
6019;SDS011;3038;51.122;6.840;2022-09-09T16:42:59;3.47;;;1.67;;
6019;SDS011;3038;51.122;6.840;2022-09-09T16:45:24;2.40;;;1.70;;
6019;SDS011;3038;51.122;6.840;2022-09-09T16:47:49;3.67;;;1.60;;
6019;SDS011;3038;51.122;6.840;2022-09-09T16:50:15;3.50;;;2.13;;
6019;SDS011;3038;51.122;6.840;2022-09-09T16:52:40;1.83;;;1.53;;
6019;SDS011;3038;51.122;6.840;2022-09-09T16:55:05;5.20;;;1.63;;
6019;SDS011;3038;51.122;6.840;2022-09-09T16:57:31;2.30;;;1.53;;
6019;SDS011;3038;51.122;6.840;2022-09-09T16:59:56;5.53;;;2.27;;
6019;SDS011;3038;51.122;6.840;2022-09-09T17:02:24;2.17;;;1.60;;
6019;SDS011;3038;51.122;6.840;2022-09-09T17:04:49;1.90;;;1.60;;
6019;SDS011;3038;51.122;6.840;2022-09-09T17:07:14;3.77;;;1.70;;
6019;SDS011;3038;51.122;6.840;2022-09-09T17:09:39;2.50;;;1.53;;
6019;SDS011;3038;51.122;6.840;2022-09-09T17:12:05;3.57;;;1.70;;
6019;SDS011;3038;51.122;6.840;2022-09-09T17:14:31;2.00;;;1.50;;
6019;SDS011;3038;51.122;6.840;2022-09-09T17:16:56;2.33;;;1.43;;
6019;SDS011;3038;51.122;6.840;2022-09-09T17:19:22;2.70;;;1.40;;